Time;durP1;ratioP1;P1;durP2;ratioP2;P2;SDS_P1;SDS_P2;PMS_P1;PMS_P2;Temp;Humidity;BMP_temperature;BMP_pressure;BME280_temperature;BME280_humidity;BME280_pressure;Samples;Min_cycle;Max_cycle;Signal;HPM_P1;HPM_P2
2022/03/29 00:00:38;;;;;;;15.48;5.65;;;10.90;75.90;;;;;;5075885;28;20074;-80
2022/03/29 00:03:08;;;;;;;11.25;5.35;;;10.80;76.40;;;;;;5059082;28;20078;-79
2022/03/29 00:05:35;;;;;;;13.57;6.47;;;10.80;77.80;;;;;;5058067;28;20044;-80
2022/03/29 00:08:01;;;;;;;14.30;5.68;;;10.90;78.60;;;;;;5075099;28;20044;-81
2022/03/29 00:10:26;;;;;;;11.82;6.15;;;10.90;77.80;;;;;;5074671;28;20513;-81
2022/03/29 00:12:53;;;;;;;12.23;6.43;;;11.00;78.10;;;;;;5057404;28;20166;-80
2022/03/29 00:15:21;;;;;;;10.88;6.20;;;11.10;78.60;;;;;;5056717;28;20107;-81
2022/03/29 00:17:47;;;;;;;11.68;6.18;;;11.10;79.40;;;;;;5058085;28;20028;-81
2022/03/29 00:20:17;;;;;;;12.77;6.47;;;11.10;78.50;;;;;;5057310;28;20087;-84
2022/03/29 00:22:44;;;;;;;12.95;6.88;;;11.20;77.80;;;;;;5074169;28;20021;-82
2022/03/29 00:25:10;;;;;;;12.32;6.93;;;11.20;77.30;;;;;;5057478;28;20032;-82
2022/03/29 00:27:37;;;;;;;12.40;6.45;;;11.20;78.70;;;;;;5075001;28;20398;-82
2022/03/29 00:30:06;;;;;;;11.25;6.43;;;11.30;78.50;;;;;;5057864;28;20477;-79
2022/03/29 00:32:32;;;;;;;12.45;6.32;;;11.30;80.00;;;;;;5074766;28;20031;-80
2022/03/29 00:34:58;;;;;;;12.82;6.85;;;11.30;79.00;;;;;;5057547;28;20025;-79
2022/03/29 00:37:23;;;;;;;9.60;6.35;;;11.30;79.80;;;;;;5057017;28;20043;-81
2022/03/29 00:39:49;;;;;;;11.65;6.50;;;11.20;80.40;;;;;;5057532;28;20079;-80
2022/03/29 00:42:15;;;;;;;14.52;6.50;;;11.20;80.80;;;;;;5057272;28;20025;-83
2022/03/29 00:44:40;;;;;;;11.20;5.97;;;11.20;81.20;;;;;;5056937;28;20563;-81
2022/03/29 00:47:06;;;;;;;13.82;6.32;;;11.20;82.50;;;;;;5057179;28;20382;-81
2022/03/29 00:49:32;;;;;;;12.27;6.10;;;11.10;83.30;;;;;;5056995;28;20039;-83
2022/03/29 00:52:01;;;;;;;14.10;6.60;;;11.00;83.50;;;;;;5075054;28;20492;-82
2022/03/29 00:54:37;;;;;;;15.55;6.68;;;10.90;83.70;;;;;;5056333;28;20119;-83
2022/03/29 00:57:04;;;;;;;13.90;6.55;;;10.90;85.10;;;;;;5056579;28;20036;-80
2022/03/29 00:59:30;;;;;;;10.10;6.32;;;10.90;85.60;;;;;;5056517;28;20021;-81
2022/03/29 01:01:57;;;;;;;14.27;6.07;;;10.80;85.80;;;;;;5074536;28;20028;-80
2022/03/29 01:04:26;;;;;;;13.00;6.47;;;10.70;87.00;;;;;;5056503;28;20043;-81
2022/03/29 01:06:53;;;;;;;11.38;6.40;;;10.80;87.80;;;;;;5056920;28;20119;-80
2022/03/29 01:09:19;;;;;;;10.98;6.00;;;10.60;90.00;;;;;;5074328;28;20159;-85
2022/03/29 01:11:45;;;;;;;11.85;6.50;;;10.60;90.30;;;;;;5074834;28;20502;-80
2022/03/29 01:14:11;;;;;;;13.63;6.75;;;10.60;90.30;;;;;;5056703;28;20477;-80
2022/03/29 01:19:21;;;;;;;11.52;6.60;;;10.50;90.40;;;;;;5073875;28;20071;-82
2022/03/29 01:22:07;;;;;;;15.95;6.53;;;10.40;91.40;;;;;;5074231;28;20024;-82
2022/03/29 01:24:36;;;;;;;12.50;5.90;;;10.40;91.90;;;;;;5073363;28;20028;-82
2022/03/29 01:27:04;;;;;;;15.65;6.53;;;10.40;92.20;;;;;;5056225;28;20127;-83
2022/03/29 01:29:30;;;;;;;13.70;6.60;;;10.30;92.30;;;;;;5055497;28;20162;-84
2022/03/29 01:32:03;;;;;;;11.93;6.72;;;10.30;92.70;;;;;;5056354;28;20024;-83
2022/03/29 01:34:30;;;;;;;11.13;6.63;;;10.20;92.50;;;;;;5055127;28;20107;-80
2022/03/29 01:36:55;;;;;;;14.35;6.70;;;10.30;91.80;;;;;;5072626;28;20120;-76
2022/03/29 01:39:21;;;;;;;11.63;6.53;;;10.30;91.40;;;;;;5055045;28;20052;-80
2022/03/29 01:41:48;;;;;;;12.68;6.75;;;10.40;91.20;;;;;;5052999;28;20021;-80
2022/03/29 01:44:14;;;;;;;12.88;6.53;;;10.40;91.20;;;;;;5036753;28;20025;-80
2022/03/29 01:46:40;;;;;;;12.60;6.57;;;10.40;91.80;;;;;;5053591;28;20103;-81
2022/03/29 01:49:06;;;;;;;14.10;6.57;;;10.40;92.00;;;;;;5047174;28;20048;-81
2022/03/29 01:51:32;;;;;;;11.68;7.00;;;10.30;92.20;;;;;;5073503;28;20480;-81
2022/03/29 01:54:00;;;;;;;12.65;6.80;;;10.30;92.60;;;;;;5055711;28;20115;-81
2022/03/29 01:56:31;;;;;;;13.90;6.28;;;10.40;93.00;;;;;;5071820;28;20124;-77
2022/03/29 01:58:57;;;;;;;15.90;6.50;;;10.40;93.50;;;;;;5070478;28;20028;-75
2022/03/29 02:01:23;;;;;;;10.82;6.35;;;10.40;92.90;;;;;;5054341;28;20099;-77
2022/03/29 02:03:49;;;;;;;11.18;6.93;;;10.30;93.10;;;;;;5054654;28;20017;-76
2022/03/29 02:06:15;;;;;;;18.00;7.10;;;10.30;92.90;;;;;;5054686;28;20020;-75
2022/03/29 02:08:41;;;;;;;13.68;6.30;;;10.20;93.60;;;;;;5054178;28;20666;-76
2022/03/29 02:11:07;;;;;;;12.80;7.50;;;10.20;94.10;;;;;;5051770;28;20013;-76
2022/03/29 02:13:33;;;;;;;12.48;6.82;;;10.20;94.00;;;;;;5054247;28;20024;-76
2022/03/29 02:15:59;;;;;;;12.65;7.28;;;10.10;94.00;;;;;;5072783;28;20020;-76
2022/03/29 02:18:25;;;;;;;13.55;7.00;;;10.10;94.20;;;;;;5071979;28;20472;-76
2022/03/29 02:20:51;;;;;;;15.15;7.05;;;10.10;94.10;;;;;;5054327;28;20507;-76
2022/03/29 02:23:16;;;;;;;15.60;6.82;;;10.00;94.00;;;;;;5063832;28;20483;-78
2022/03/29 02:25:46;;;;;;;12.13;6.97;;;10.10;93.90;;;;;;5054067;28;20040;-79
2022/03/29 02:28:11;;;;;;;10.18;6.80;;;10.10;94.60;;;;;;5072534;28;20028;-77
2022/03/29 02:30:37;;;;;;;12.52;6.68;;;10.10;94.30;;;;;;5054280;28;20021;-79
2022/03/29 02:33:04;;;;;;;13.02;6.70;;;10.10;94.20;;;;;;5054921;28;20024;-78
2022/03/29 02:35:29;;;;;;;13.18;6.20;;;10.10;94.30;;;;;;5072478;28;20017;-78
2022/03/29 02:37:55;;;;;;;16.58;6.80;;;10.10;94.30;;;;;;5055109;28;20035;-78
2022/03/29 02:40:21;;;;;;;13.90;7.20;;;10.10;94.20;;;;;;5071642;28;20028;-79
2022/03/29 02:42:48;;;;;;;16.30;7.75;;;10.10;94.80;;;;;;5054877;28;20021;-78
2022/03/29 02:45:18;;;;;;;11.85;6.53;;;10.00;94.50;;;;;;5055056;28;20474;-77
2022/03/29 02:47:55;;;;;;;14.65;7.40;;;10.00;94.70;;;;;;5054215;28;20028;-78
2022/03/29 02:50:21;;;;;;;13.50;6.95;;;10.00;95.40;;;;;;5072158;28;20032;-84
2022/03/29 02:52:58;;;;;;;15.25;7.07;;;10.00;95.30;;;;;;5054681;28;20048;-78
2022/03/29 02:55:27;;;;;;;18.23;6.93;;;10.00;95.20;;;;;;5054228;28;20021;-77
2022/03/29 02:57:53;;;;;;;14.18;7.35;;;10.00;95.00;;;;;;5054625;28;20068;-77
2022/03/29 03:00:19;;;;;;;14.40;6.75;;;10.00;94.80;;;;;;5054808;28;20414;-77
2022/03/29 03:02:54;;;;;;;12.15;6.63;;;9.80;95.20;;;;;;5072078;28;20339;-78
2022/03/29 03:05:20;;;;;;;15.35;7.40;;;9.90;95.50;;;;;;5054877;28;20044;-77
2022/03/29 03:07:46;;;;;;;11.20;6.85;;;9.90;95.10;;;;;;5054181;28;20408;-77
2022/03/29 03:10:13;;;;;;;12.57;6.50;;;9.80;95.60;;;;;;5057435;28;20069;-77
2022/03/29 03:12:46;;;;;;;13.65;6.50;;;9.60;96.00;;;;;;5057778;28;20473;-78
2022/03/29 03:15:17;;;;;;;12.60;6.78;;;9.60;96.00;;;;;;5058559;28;20119;-77
2022/03/29 03:17:43;;;;;;;12.38;6.85;;;9.60;96.20;;;;;;5057873;28;20095;-78
2022/03/29 03:20:09;;;;;;;14.00;6.90;;;9.60;96.40;;;;;;5058356;28;20417;-78
2022/03/29 03:22:39;;;;;;;20.60;7.03;;;9.60;96.10;;;;;;5074646;28;20369;-79
2022/03/29 03:25:05;;;;;;;16.40;7.68;;;9.60;96.30;;;;;;5058416;28;20024;-79
2022/03/29 03:27:31;;;;;;;14.07;7.03;;;9.60;96.10;;;;;;5057820;28;20036;-79
2022/03/29 03:29:57;;;;;;;11.02;6.85;;;9.60;96.00;;;;;;5058153;28;20471;-78
2022/03/29 03:32:23;;;;;;;13.40;7.40;;;9.60;96.10;;;;;;5058019;28;20060;-81
2022/03/29 03:34:49;;;;;;;13.77;7.35;;;9.70;96.30;;;;;;5073588;28;20078;-77
2022/03/29 03:37:15;;;;;;;12.07;6.95;;;9.60;96.40;;;;;;5057833;28;20028;-77
2022/03/29 03:39:41;;;;;;;13.63;6.55;;;9.50;96.50;;;;;;5074946;28;20032;-78
2022/03/29 03:42:09;;;;;;;13.27;7.35;;;9.50;96.60;;;;;;5057824;28;20094;-77
2022/03/29 03:44:39;;;;;;;14.75;7.15;;;9.50;96.60;;;;;;5075460;28;20384;-78
2022/03/29 03:47:07;;;;;;;12.43;7.28;;;9.50;96.70;;;;;;5057612;28;20060;-77
2022/03/29 03:49:34;;;;;;;14.32;7.00;;;9.60;96.70;;;;;;5057216;28;20413;-77
2022/03/29 03:51:59;;;;;;;14.90;7.63;;;9.60;96.90;;;;;;5075550;28;20033;-77
2022/03/29 03:54:25;;;;;;;16.13;7.50;;;9.70;96.80;;;;;;5056901;28;20124;-78
2022/03/29 03:56:51;;;;;;;14.73;7.70;;;9.60;96.90;;;;;;5075438;28;20107;-77
2022/03/29 03:59:16;;;;;;;12.73;7.35;;;9.60;96.80;;;;;;5057700;28;20028;-77
2022/03/29 04:01:42;;;;;;;17.08;7.80;;;9.70;96.80;;;;;;5057172;28;20021;-78
2022/03/29 04:04:07;;;;;;;13.10;7.82;;;9.70;96.60;;;;;;5057510;28;20059;-78
2022/03/29 04:06:33;;;;;;;15.18;7.03;;;9.60;96.70;;;;;;5075342;28;20027;-78
2022/03/29 04:08:59;;;;;;;15.13;6.93;;;9.60;96.80;;;;;;5057486;28;20361;-78
2022/03/29 04:11:26;;;;;;;11.55;6.68;;;9.60;96.90;;;;;;5057457;28;20027;-77
2022/03/29 04:13:52;;;;;;;13.88;6.97;;;9.70;96.90;;;;;;5075301;28;20025;-78
2022/03/29 04:16:17;;;;;;;17.20;7.57;;;9.70;97.00;;;;;;5057287;28;20028;-78
2022/03/29 04:18:43;;;;;;;13.00;7.30;;;9.70;96.70;;;;;;5056729;28;20082;-78
2022/03/29 04:21:09;;;;;;;16.20;7.20;;;9.60;96.60;;;;;;5074656;28;20048;-78
2022/03/29 04:23:35;;;;;;;13.15;7.07;;;9.60;96.70;;;;;;5056806;28;20031;-78
2022/03/29 04:26:02;;;;;;;15.73;7.90;;;9.60;97.10;;;;;;5075109;28;20024;-77
2022/03/29 04:28:28;;;;;;;14.48;7.20;;;9.50;97.10;;;;;;5074565;28;20023;-79
2022/03/29 04:30:55;;;;;;;16.70;7.85;;;9.60;97.10;;;;;;5073755;28;20385;-78
2022/03/29 04:33:22;;;;;;;14.70;7.55;;;9.60;96.90;;;;;;5075072;28;20025;-78
2022/03/29 04:35:47;;;;;;;14.45;7.03;;;9.60;97.20;;;;;;5074622;28;20035;-78
2022/03/29 04:38:13;;;;;;;18.23;8.30;;;9.50;97.20;;;;;;5074997;28;20458;-78
2022/03/29 04:40:39;;;;;;;15.15;8.02;;;9.50;97.20;;;;;;5056617;28;20031;-77
2022/03/29 04:43:04;;;;;;;16.17;8.02;;;9.50;97.10;;;;;;5073490;28;20056;-78
2022/03/29 04:45:30;;;;;;;16.25;8.57;;;9.50;96.90;;;;;;5074162;28;20570;-78
2022/03/29 04:47:56;;;;;;;17.27;8.63;;;9.60;96.50;;;;;;5056641;28;20027;-78
2022/03/29 04:50:22;;;;;;;22.95;8.93;;;9.80;96.20;;;;;;5056615;28;20086;-78
2022/03/29 04:52:48;;;;;;;20.27;8.63;;;9.80;96.50;;;;;;5072847;28;20396;-78
2022/03/29 04:55:15;;;;;;;14.90;7.97;;;9.80;96.40;;;;;;5056470;28;20032;-77
2022/03/29 04:57:42;;;;;;;14.55;7.63;;;9.80;96.80;;;;;;5055990;28;20120;-78
2022/03/29 05:00:09;;;;;;;20.77;6.93;;;9.70;97.20;;;;;;5056579;28;20119;-78
2022/03/29 05:02:40;;;;;;;21.55;7.75;;;9.70;97.10;;;;;;5056005;28;20053;-78
2022/03/29 05:05:06;;;;;;;24.15;7.95;;;9.70;97.10;;;;;;5056037;28;20070;-77
2022/03/29 05:07:32;;;;;;;16.25;7.72;;;9.70;97.00;;;;;;5055431;28;20101;-78
2022/03/29 05:09:58;;;;;;;13.82;7.63;;;9.60;97.50;;;;;;5056033;28;20399;-77
2022/03/29 05:12:24;;;;;;;18.88;7.43;;;9.50;97.80;;;;;;5056246;28;20538;-77
2022/03/29 05:14:49;;;;;;;11.90;7.38;;;9.60;97.60;;;;;;5055718;28;20028;-78
2022/03/29 05:17:15;;;;;;;13.55;8.30;;;9.50;97.80;;;;;;5072414;28;20036;-77
2022/03/29 05:19:41;;;;;;;18.20;8.35;;;9.50;97.90;;;;;;5071890;28;20135;-78
2022/03/29 05:22:06;;;;;;;19.02;8.52;;;9.50;97.60;;;;;;5056195;28;20047;-78
2022/03/29 05:24:32;;;;;;;15.00;8.27;;;9.50;97.70;;;;;;5055465;28;20457;-77
2022/03/29 05:26:58;;;;;;;18.58;8.27;;;9.50;97.80;;;;;;5055885;28;20410;-78
2022/03/29 05:29:25;;;;;;;16.98;8.20;;;9.50;98.10;;;;;;5055951;28;20449;-78
2022/03/29 05:31:51;;;;;;;15.55;7.75;;;9.40;98.30;;;;;;5055373;28;20020;-78
2022/03/29 05:34:17;;;;;;;16.40;8.52;;;9.50;98.40;;;;;;5055876;28;20024;-78
2022/03/29 05:36:45;;;;;;;18.90;9.00;;;9.40;98.60;;;;;;5055613;28;20514;-78
2022/03/29 05:39:13;;;;;;;18.50;8.20;;;9.40;98.60;;;;;;5055871;28;20105;-78
2022/03/29 05:41:39;;;;;;;19.65;8.40;;;9.40;98.70;;;;;;5055193;28;20461;-78
2022/03/29 05:44:05;;;;;;;16.92;7.95;;;9.40;98.80;;;;;;5055797;28;20024;-78
2022/03/29 05:49:15;;;;;;;17.52;8.88;;;9.50;98.70;;;;;;5073489;28;20032;-79
2022/03/29 05:51:41;;;;;;;18.17;8.38;;;9.60;98.40;;;;;;5055007;28;20024;-77
2022/03/29 05:54:07;;;;;;;19.45;8.30;;;9.60;98.70;;;;;;5074994;28;20024;-78
2022/03/29 05:56:33;;;;;;;18.55;8.35;;;9.60;98.80;;;;;;5054806;28;20032;-78
2022/03/29 05:58:58;;;;;;;24.05;11.52;;;9.60;99.10;;;;;;5057651;28;20036;-78
2022/03/29 06:01:25;;;;;;;19.00;8.93;;;9.70;98.60;;;;;;5058481;28;20023;-77
2022/03/29 06:03:50;;;;;;;18.42;9.35;;;9.60;99.00;;;;;;5055193;28;20059;-78
2022/03/29 06:06:16;;;;;;;16.63;8.45;;;9.60;99.40;;;;;;5055510;28;20410;-78
2022/03/29 06:08:42;;;;;;;17.52;9.13;;;9.70;99.70;;;;;;5054539;28;20028;-78
2022/03/29 06:11:08;;;;;;;18.13;8.55;;;9.60;99.80;;;;;;5071694;28;20468;-78
2022/03/29 06:13:34;;;;;;;21.38;8.85;;;9.70;99.50;;;;;;5054710;28;20434;-78
2022/03/29 06:16:00;;;;;;;17.23;9.27;;;9.70;99.50;;;;;;5054589;28;20029;-78
2022/03/29 06:18:27;;;;;;;18.67;8.85;;;9.80;99.40;;;;;;5054943;28;20032;-77
2022/03/29 06:20:53;;;;;;;18.55;9.18;;;9.90;99.60;;;;;;5057935;28;20054;-78
2022/03/29 06:23:19;;;;;;;19.33;9.65;;;10.00;98.50;;;;;;5057249;28;20021;-79
2022/03/29 06:25:46;;;;;;;16.23;8.88;;;10.00;99.00;;;;;;5072298;28;20063;-78
2022/03/29 06:28:12;;;;;;;18.00;8.60;;;10.00;98.50;;;;;;5055114;28;20032;-78
2022/03/29 06:30:38;;;;;;;19.45;9.25;;;10.10;97.70;;;;;;5071332;28;20026;-79
2022/03/29 06:33:04;;;;;;;18.13;8.88;;;10.20;97.20;;;;;;5030501;28;20053;-78
2022/03/29 06:35:31;;;;;;;20.08;8.68;;;10.30;96.90;;;;;;5030076;28;20069;-78
2022/03/29 06:37:58;;;;;;;24.50;8.50;;;10.30;96.80;;;;;;5030079;28;20554;-78
2022/03/29 06:40:27;;;;;;;21.85;8.65;;;10.50;96.50;;;;;;5030341;28;20053;-78
2022/03/29 06:42:55;;;;;;;25.52;9.35;;;10.60;96.30;;;;;;5029881;28;20434;-78
2022/03/29 06:45:20;;;;;;;18.30;9.02;;;10.70;96.20;;;;;;5033685;28;20574;-78
2022/03/29 06:47:47;;;;;;;19.20;9.45;;;10.70;96.30;;;;;;5017271;28;20116;-78
2022/03/29 06:50:13;;;;;;;21.45;9.20;;;10.60;96.10;;;;;;5008234;28;20056;-78
2022/03/29 06:52:41;;;;;;;23.08;9.30;;;10.70;96.10;;;;;;5013903;28;20061;-79
2022/03/29 06:55:09;;;;;;;26.67;9.93;;;10.70;96.40;;;;;;5024021;28;20064;-78
2022/03/29 06:57:37;;;;;;;22.48;8.77;;;10.80;97.00;;;;;;5032533;28;20033;-77
2022/03/29 07:00:06;;;;;;;22.75;9.30;;;10.90;96.70;;;;;;5015870;28;20057;-78
2022/03/29 07:02:39;;;;;;;24.02;9.90;;;10.90;96.10;;;;;;5015639;28;20046;-80
2022/03/29 07:05:06;;;;;;;19.77;9.70;;;11.00;95.90;;;;;;5070524;28;20052;-78
2022/03/29 07:07:32;;;;;;;21.83;9.45;;;11.00;95.70;;;;;;5074064;28;20025;-78
2022/03/29 07:12:49;;;;;;;23.40;9.63;;;11.20;95.10;;;;;;5074083;28;20056;-78
2022/03/29 07:15:18;;;;;;;28.38;10.40;;;11.20;94.70;;;;;;5056932;28;20047;-78
2022/03/29 07:17:45;;;;;;;27.48;10.95;;;11.40;94.70;;;;;;5076211;28;20032;-78
2022/03/29 07:20:11;;;;;;;23.58;10.35;;;11.40;94.90;;;;;;5062587;28;20055;-78
2022/03/29 07:22:37;;;;;;;26.17;10.40;;;11.40;94.90;;;;;;5054654;28;20017;-84
2022/03/29 07:25:04;;;;;;;26.17;10.15;;;11.50;94.60;;;;;;5054811;28;20025;-78
2022/03/29 07:27:30;;;;;;;29.80;11.10;;;11.60;94.70;;;;;;5054980;28;20025;-78
2022/03/29 07:29:57;;;;;;;23.27;9.90;;;11.60;94.80;;;;;;5054572;28;20083;-78
2022/03/29 07:32:22;;;;;;;25.17;9.35;;;11.70;94.30;;;;;;5054733;28;20040;-77
2022/03/29 07:34:48;;;;;;;22.42;9.68;;;11.70;94.20;;;;;;5054118;28;20430;-77
2022/03/29 07:37:14;;;;;;;21.48;9.68;;;11.80;93.50;;;;;;5054439;28;20060;-78
2022/03/29 07:39:41;;;;;;;20.90;9.48;;;11.80;92.80;;;;;;5054145;28;20024;-78
2022/03/29 07:42:07;;;;;;;21.30;8.93;;;11.90;92.20;;;;;;5054185;28;20025;-77
2022/03/29 07:44:33;;;;;;;20.73;9.15;;;11.90;92.00;;;;;;5054366;28;20028;-77
2022/03/29 07:47:00;;;;;;;21.58;9.90;;;11.90;91.60;;;;;;5053683;28;20541;-77
2022/03/29 07:49:27;;;;;;;20.77;9.02;;;11.90;91.20;;;;;;5054402;28;20366;-78
2022/03/29 07:51:52;;;;;;;26.58;10.48;;;12.00;91.90;;;;;;5053712;28;20017;-77
2022/03/29 07:54:18;;;;;;;21.48;9.52;;;12.00;92.50;;;;;;5054198;28;20028;-77
2022/03/29 07:56:44;;;;;;;20.92;9.68;;;12.00;92.20;;;;;;5048027;28;20029;-78
2022/03/29 07:59:10;;;;;;;23.67;8.98;;;12.00;91.60;;;;;;5045587;28;20074;-77
2022/03/29 08:01:36;;;;;;;26.67;9.93;;;12.10;91.40;;;;;;5053459;28;20064;-77
2022/03/29 08:04:02;;;;;;;15.10;8.70;;;12.20;90.80;;;;;;5052922;28;20032;-77
2022/03/29 08:06:28;;;;;;;19.83;9.30;;;12.20;90.00;;;;;;5053455;28;20021;-77
2022/03/29 08:08:54;;;;;;;21.75;9.88;;;12.30;89.00;;;;;;5050109;28;20032;-77
2022/03/29 08:11:22;;;;;;;22.25;10.50;;;12.30;88.20;;;;;;5053710;28;20021;-77
2022/03/29 08:13:49;;;;;;;22.33;10.25;;;12.40;88.20;;;;;;5053072;28;20020;-78
2022/03/29 08:16:16;;;;;;;19.30;9.45;;;12.50;88.60;;;;;;5053942;28;20021;-81
2022/03/29 08:18:41;;;;;;;17.58;9.18;;;12.60;88.30;;;;;;5053193;28;20470;-78
2022/03/29 08:21:48;;;;;;;23.73;9.80;;;12.70;87.90;;;;;;5052901;28;20079;-78
2022/03/29 08:23:53;;;;;;;25.27;10.70;;;12.80;86.60;;;;;;5047523;28;20027;-78
2022/03/29 08:26:19;;;;;;;26.08;11.60;;;12.90;84.70;;;;;;5040236;28;20033;-79
2022/03/29 08:28:45;;;;;;;23.60;11.20;;;12.90;83.80;;;;;;5053661;28;20028;-78
2022/03/29 08:31:11;;;;;;;28.25;11.40;;;13.00;84.00;;;;;;5052328;28;20473;-80
2022/03/29 08:33:37;;;;;;;26.88;11.15;;;13.00;84.50;;;;;;5067149;28;20347;-79
2022/03/29 08:36:03;;;;;;;27.05;11.38;;;13.00;84.60;;;;;;5038996;28;20095;-80
2022/03/29 08:38:29;;;;;;;30.83;13.55;;;13.10;84.30;;;;;;5050172;28;20029;-78
2022/03/29 08:40:57;;;;;;;26.80;12.25;;;13.10;84.80;;;;;;5050769;28;20040;-77
2022/03/29 08:43:27;;;;;;;28.98;13.45;;;13.30;85.40;;;;;;5052867;28;20029;-76
2022/03/29 08:45:53;;;;;;;33.10;13.73;;;13.30;84.00;;;;;;5053482;28;20025;-81
2022/03/29 08:48:23;;;;;;;32.70;12.90;;;13.30;83.00;;;;;;5053910;28;20060;-80
2022/03/29 08:50:51;;;;;;;31.55;13.68;;;13.40;82.90;;;;;;5053505;28;20402;-81
2022/03/29 08:53:17;;;;;;;30.23;14.02;;;13.40;82.50;;;;;;5053887;28;20025;-82
2022/03/29 08:55:44;;;;;;;36.47;14.57;;;13.40;82.50;;;;;;5053901;28;20110;-89
2022/03/29 08:58:11;;;;;;;29.92;13.38;;;13.40;82.70;;;;;;5052995;28;20428;-81
2022/03/29 09:00:36;;;;;;;31.05;13.48;;;13.50;82.80;;;;;;5053436;28;20111;-82
2022/03/29 09:03:02;;;;;;;27.48;13.38;;;13.60;82.90;;;;;;5053429;28;20053;-81
2022/03/29 09:05:29;;;;;;;29.83;13.25;;;13.60;82.60;;;;;;5052821;28;20521;-81
2022/03/29 09:07:57;;;;;;;30.33;13.88;;;13.70;83.10;;;;;;5049957;28;20461;-83
2022/03/29 09:10:39;;;;;;;28.60;13.70;;;13.80;83.20;;;;;;5053157;28;20446;-82
2022/03/29 09:13:29;;;;;;;31.90;13.68;;;13.90;81.80;;;;;;5052386;28;20063;-81
2022/03/29 09:16:00;;;;;;;33.67;14.52;;;14.00;81.70;;;;;;5032093;28;20104;-83
2022/03/29 09:18:26;;;;;;;34.17;14.73;;;14.00;81.30;;;;;;5030412;28;20037;-81
2022/03/29 09:21:15;;;;;;;30.58;14.85;;;14.10;81.10;;;;;;5062278;28;20175;-81
2022/03/29 09:23:45;;;;;;;33.00;14.60;;;14.10;82.50;;;;;;5057869;28;20033;-83
2022/03/29 09:26:27;;;;;;;28.75;13.60;;;14.20;80.70;;;;;;5056548;28;20028;-80
2022/03/29 09:28:53;;;;;;;32.78;14.23;;;14.10;79.70;;;;;;5052697;28;20025;-80
2022/03/29 09:31:22;;;;;;;36.88;15.70;;;14.20;80.30;;;;;;5065045;28;20523;-81
2022/03/29 09:33:48;;;;;;;35.10;14.93;;;14.20;79.70;;;;;;5059899;28;20107;-82
2022/03/29 09:36:20;;;;;;;33.65;14.57;;;14.20;79.70;;;;;;5057026;28;20036;-85
2022/03/29 09:38:47;;;;;;;32.55;14.50;;;14.20;79.10;;;;;;5056752;28;20036;-89
2022/03/29 09:41:26;;;;;;;32.45;14.38;;;14.20;79.10;;;;;;5055540;28;20028;-88
2022/03/29 09:44:05;;;;;;;35.92;14.32;;;14.20;80.70;;;;;;5060042;28;20036;-86
2022/03/29 09:46:31;;;;;;;37.50;15.50;;;14.40;81.90;;;;;;5066599;28;20115;-87
2022/03/29 09:49:01;;;;;;;36.70;15.38;;;14.30;80.50;;;;;;5066992;28;20124;-85
2022/03/29 09:51:28;;;;;;;35.28;15.02;;;14.40;81.60;;;;;;5055692;28;20028;-86
2022/03/29 09:53:57;;;;;;;35.72;15.70;;;14.50;80.10;;;;;;5058268;28;20097;-86
2022/03/29 09:56:25;;;;;;;37.67;15.85;;;14.70;79.80;;;;;;5063961;28;20040;-88
2022/03/29 09:59:17;;;;;;;32.15;15.50;;;14.80;79.70;;;;;;5053130;28;20341;-90
2022/03/29 10:01:47;;;;;;;32.40;14.07;;;14.90;79.80;;;;;;5055821;28;20025;-88
2022/03/29 10:04:17;;;;;;;37.05;16.05;;;15.00;81.00;;;;;;5050187;28;20071;-89
2022/03/29 10:06:46;;;;;;;35.42;14.70;;;15.20;79.30;;;;;;5066423;28;20107;-87
2022/03/29 10:09:27;;;;;;;32.17;15.02;;;15.30;78.00;;;;;;5055476;28;20025;-85
2022/03/29 10:11:58;;;;;;;32.80;14.30;;;15.40;78.10;;;;;;5059638;28;20021;-85
2022/03/29 10:14:25;;;;;;;32.78;14.02;;;15.50;78.60;;;;;;5063194;28;20393;-83
2022/03/29 10:16:55;;;;;;;38.35;17.45;;;15.50;76.20;;;;;;5068078;28;20147;-83
2022/03/29 10:19:21;;;;;;;31.60;15.15;;;15.50;74.30;;;;;;5053160;28;20090;-84
2022/03/29 10:21:47;;;;;;;33.20;14.18;;;15.50;75.10;;;;;;5059865;28;20025;-82
2022/03/29 10:24:14;;;;;;;34.90;14.65;;;15.60;75.70;;;;;;5062115;28;20052;-81
2022/03/29 10:26:42;;;;;;;30.83;15.20;;;15.60;73.10;;;;;;5050558;28;20052;-83
2022/03/29 10:29:09;;;;;;;33.67;14.10;;;15.60;74.60;;;;;;5032165;28;20037;-82
2022/03/29 10:31:47;;;;;;;35.15;14.30;;;15.70;74.80;;;;;;5045371;28;20025;-85
2022/03/29 10:34:19;;;;;;;34.10;14.82;;;15.80;74.00;;;;;;5055792;28;20029;-83
2022/03/29 10:37:04;;;;;;;;;;;15.80;74.00;;;;;;5050269;28;20135;-83
2022/03/29 10:39:41;;;;;;;34.88;13.50;;;15.80;73.70;;;;;;5059527;28;19919;-83
2022/03/29 10:42:29;;;;;;;35.65;14.10;;;15.80;74.90;;;;;;5058019;28;20025;-84
2022/03/29 10:45:19;;;;;;;30.10;14.48;;;15.80;74.60;;;;;;5067366;28;20078;-83
2022/03/29 10:48:09;;;;;;;31.90;13.55;;;16.00;75.30;;;;;;5069322;28;20488;-84
2022/03/29 10:50:54;;;;;;;34.15;13.95;;;16.00;73.50;;;;;;5054868;28;20056;-84
2022/03/29 10:53:36;;;;;;;28.23;13.70;;;16.20;74.20;;;;;;5041552;28;20527;-83
2022/03/29 10:56:24;;;;;;;33.30;14.52;;;16.20;72.00;;;;;;5055646;28;20060;-85
2022/03/29 10:59:02;;;;;;;31.08;14.00;;;16.30;71.50;;;;;;5063969;28;20033;-84
2022/03/29 11:01:32;;;;;;;34.83;14.93;;;16.30;70.80;;;;;;5048871;28;20036;-83
2022/03/29 11:04:13;;;;;;;32.65;14.90;;;16.30;69.30;;;;;;5051232;28;20032;-85
2022/03/29 11:07:16;;;;;;;34.38;14.20;;;16.40;70.00;;;;;;5048926;28;20029;-81
2022/03/29 11:09:44;;;;;;;31.50;13.40;;;16.50;68.00;;;;;;5058080;28;20036;-85
2022/03/29 11:12:37;;;;;;;39.55;14.60;;;16.50;66.30;;;;;;5070002;28;20020;-84
2022/03/29 11:15:25;;;;;;;31.50;13.20;;;16.60;63.40;;;;;;5051770;28;20047;-84
2022/03/29 11:17:52;;;;;;;34.30;13.88;;;16.70;63.60;;;;;;5059398;28;20025;-84
2022/03/29 11:20:32;;;;;;;32.78;13.02;;;16.80;64.50;;;;;;5078665;28;20079;-86
2022/03/29 11:23:04;;;;;;;32.13;13.15;;;16.90;62.50;;;;;;5072203;28;20028;-84
2022/03/29 11:25:39;;;;;;;27.42;12.13;;;17.00;62.80;;;;;;5064062;28;20048;-85
2022/03/29 11:28:06;;;;;;;31.08;13.73;;;17.00;63.30;;;;;;5070300;28;20032;-87
2022/03/29 11:30:34;;;;;;;31.42;13.25;;;17.10;62.40;;;;;;5073215;28;20127;-84
2022/03/29 11:33:05;;;;;;;28.13;11.95;;;17.20;62.30;;;;;;5057763;28;20544;-83
2022/03/29 11:35:35;;;;;;;27.52;12.10;;;17.20;61.90;;;;;;5068542;28;20343;-83
2022/03/29 11:38:08;;;;;;;34.22;13.13;;;17.30;62.20;;;;;;5056543;28;20127;-80
2022/03/29 11:40:34;;;;;;;30.30;12.85;;;17.30;59.90;;;;;;5055504;28;20035;-83
2022/03/29 11:43:02;;;;;;;33.65;14.43;;;17.30;59.40;;;;;;5056394;28;20127;-82
2022/03/29 11:45:30;;;;;;;28.75;13.10;;;17.30;58.00;;;;;;5070416;28;20020;-81
2022/03/29 11:47:57;;;;;;;31.10;13.00;;;17.30;57.80;;;;;;5072272;28;20035;-80
2022/03/29 11:50:40;;;;;;;29.35;12.68;;;17.40;58.30;;;;;;5074359;28;20029;-84
2022/03/29 11:53:19;;;;;;;27.20;12.27;;;17.50;60.70;;;;;;5035790;28;20021;-86
2022/03/29 11:56:11;;;;;;;27.63;11.10;;;17.60;58.30;;;;;;5066480;28;20097;-80
2022/03/29 11:59:03;;;;;;;29.58;12.02;;;17.60;56.10;;;;;;5054445;28;20035;-83
2022/03/29 12:01:31;;;;;;;30.70;11.63;;;17.60;56.50;;;;;;5058657;28;20457;-87
2022/03/29 12:04:07;;;;;;;24.23;11.27;;;17.80;55.80;;;;;;5078399;28;20028;-87
2022/03/29 12:06:46;;;;;;;24.75;10.82;;;17.80;55.20;;;;;;5070876;28;20321;-91
2022/03/29 12:09:16;;;;;;;25.77;11.13;;;17.90;54.80;;;;;;5051629;28;20032;-87
2022/03/29 12:11:45;;;;;;;23.45;10.95;;;17.90;57.00;;;;;;5064108;28;20468;-90
2022/03/29 12:14:20;;;;;;;22.67;10.60;;;17.90;56.90;;;;;;5080989;28;20043;-86
2022/03/29 12:16:48;;;;;;;24.42;11.05;;;17.90;55.70;;;;;;5071837;28;20491;-85
2022/03/29 12:19:16;;;;;;;20.70;10.00;;;17.90;54.70;;;;;;5070274;28;20048;-88
2022/03/29 12:21:46;;;;;;;25.33;10.80;;;18.00;55.30;;;;;;5063240;28;20032;-90
2022/03/29 12:24:13;;;;;;;26.00;10.80;;;18.10;55.60;;;;;;5061541;28;20028;-81
2022/03/29 12:26:44;;;;;;;21.60;10.07;;;18.20;56.20;;;;;;5056550;28;20036;-89
2022/03/29 12:29:17;;;;;;;25.75;11.02;;;18.40;55.40;;;;;;5043696;28;20464;-83
2022/03/29 12:31:43;;;;;;;26.13;10.20;;;18.50;54.30;;;;;;5074509;28;20060;-83
2022/03/29 12:34:10;;;;;;;20.95;9.60;;;18.60;53.90;;;;;;5062867;28;20055;-85
2022/03/29 12:36:40;;;;;;;21.52;9.70;;;18.60;54.40;;;;;;5070750;28;20143;-88
2022/03/29 12:39:08;;;;;;;21.10;9.27;;;18.80;53.30;;;;;;5066774;28;20039;-90
2022/03/29 12:41:38;;;;;;;23.17;9.68;;;18.80;52.00;;;;;;5078898;28;20055;-87
2022/03/29 12:44:10;;;;;;;21.40;9.43;;;18.80;50.90;;;;;;5080492;28;20483;-90
2022/03/29 12:46:38;;;;;;;21.02;9.00;;;18.70;51.90;;;;;;5070577;28;20066;-88
2022/03/29 12:49:04;;;;;;;24.08;9.38;;;18.80;52.40;;;;;;5057646;28;20669;-85
2022/03/29 12:51:35;;;;;;;19.98;9.68;;;18.80;50.00;;;;;;5074681;28;20024;-86